createdAt,value
2023-05-10T00:00:55.768Z,11.28
2023-05-10T00:01:55.930Z,11.44
2023-05-10T00:02:56.033Z,11.28
2023-05-10T00:03:56.200Z,11.2
2023-05-10T00:04:56.271Z,11.28
2023-05-10T00:05:56.372Z,11.28
2023-05-10T00:06:56.485Z,11.2
2023-05-10T00:07:56.588Z,11.2
2023-05-10T00:08:56.682Z,11.2
2023-05-10T00:09:56.807Z,11.28
2023-05-10T00:10:56.931Z,11.2
2023-05-10T00:11:57.036Z,11.2
2023-05-10T00:12:57.161Z,11.12
2023-05-10T00:13:57.236Z,11.2
2023-05-10T00:14:57.342Z,11.12
2023-05-10T00:15:57.520Z,11.2
2023-05-10T00:16:57.610Z,11.2
2023-05-10T00:17:57.776Z,11.2
2023-05-10T00:18:57.899Z,11.12
2023-05-10T00:19:57.998Z,11.2
2023-05-10T00:20:58.102Z,11.2
2023-05-10T00:21:58.198Z,11.2
2023-05-10T00:22:58.362Z,11.12
2023-05-10T00:23:58.460Z,11.04
2023-05-10T00:24:58.557Z,11.2
2023-05-10T00:25:58.670Z,11.12
2023-05-10T00:26:58.770Z,11.12
2023-05-10T00:27:58.907Z,11.04
2023-05-10T00:28:59.017Z,11.12
2023-05-10T00:29:59.116Z,11.12
2023-05-10T00:30:59.216Z,10.88
2023-05-10T00:31:59.332Z,10.88
2023-05-10T00:32:59.498Z,11.04
2023-05-10T00:33:59.591Z,11.04
2023-05-10T00:34:59.675Z,10.88
2023-05-10T00:35:59.776Z,11.04
2023-05-10T00:36:59.881Z,11.04
2023-05-10T00:37:59.976Z,10.88
2023-05-10T00:39:00.142Z,10.88
2023-05-10T00:40:00.196Z,10.8
2023-05-10T00:41:00.283Z,10.8
2023-05-10T00:42:00.392Z,10.8
2023-05-10T00:43:00.536Z,10.88
2023-05-10T00:44:00.690Z,10.88
2023-05-10T00:45:00.790Z,10.88
2023-05-10T00:46:00.908Z,11.04
2023-05-10T00:47:00.997Z,10.88
2023-05-10T00:48:01.196Z,10.8
2023-05-10T00:49:01.302Z,10.8
2023-05-10T00:50:01.448Z,10.8
2023-05-10T00:51:01.564Z,10.88
2023-05-10T00:52:01.669Z,10.88
2023-05-10T00:53:01.753Z,10.88
2023-05-10T00:54:01.912Z,10.8
2023-05-10T00:55:02.024Z,10.8
2023-05-10T00:56:02.119Z,10.719999
2023-05-10T00:57:02.259Z,10.8
2023-05-10T00:58:02.376Z,10.88
2023-05-10T00:59:02.517Z,10.8
2023-05-10T01:00:02.615Z,10.8
2023-05-10T01:01:02.759Z,10.8
2023-05-10T01:02:02.894Z,10.639999
2023-05-10T01:03:03.071Z,10.48
2023-05-10T01:04:03.089Z,10.719999
2023-05-10T01:05:03.202Z,10.48
2023-05-10T01:06:03.276Z,10.639999
2023-05-10T01:07:03.383Z,10.719999
2023-05-10T01:08:03.541Z,10.719999
2023-05-10T01:09:03.638Z,10.639999
2023-05-10T01:10:03.787Z,10.639999
2023-05-10T01:11:03.911Z,10.639999
2023-05-10T01:12:04.013Z,10.639999
2023-05-10T01:13:04.206Z,10.8
2023-05-10T01:14:04.252Z,10.719999
2023-05-10T01:15:04.398Z,10.639999
2023-05-10T01:16:04.575Z,10.639999
2023-05-10T01:17:04.653Z,10.48
2023-05-10T01:18:04.819Z,10.48
2023-05-10T01:19:04.908Z,10.4
2023-05-10T01:20:05.002Z,10.639999
2023-05-10T01:21:05.159Z,10.719999
2023-05-10T01:22:05.311Z,10.8
2023-05-10T01:23:05.415Z,10.719999
2023-05-10T01:24:05.566Z,10.719999
2023-05-10T01:25:05.667Z,10.639999
2023-05-10T01:26:05.810Z,10.639999
2023-05-10T01:27:05.918Z,10.639999
2023-05-10T01:28:06.025Z,10.719999
2023-05-10T01:29:06.126Z,10.719999
2023-05-10T01:30:15.242Z,10.639999
2023-05-10T01:31:06.464Z,10.639999
2023-05-10T01:32:06.534Z,10.48
2023-05-10T01:33:06.681Z,10.48
2023-05-10T01:34:06.744Z,10.48
2023-05-10T01:35:06.892Z,10.639999
2023-05-10T01:36:06.991Z,10.48
2023-05-10T01:37:07.110Z,10.4
2023-05-10T01:38:07.195Z,10.48
2023-05-10T01:39:07.341Z,10.48
2023-05-10T01:40:07.461Z,10.4
2023-05-10T01:41:07.584Z,10.4
2023-05-10T01:42:07.741Z,10.48
2023-05-10T01:43:07.853Z,10.4
2023-05-10T01:44:07.995Z,10.32
2023-05-10T01:45:08.105Z,10.32
2023-05-10T01:46:08.276Z,10.32
2023-05-10T01:47:08.353Z,10.4
2023-05-10T01:48:08.567Z,10.4
2023-05-10T01:49:08.602Z,10.4
2023-05-10T01:50:08.710Z,10.4
2023-05-10T01:51:08.845Z,10.32
2023-05-10T01:52:08.960Z,10.4
2023-05-10T01:53:09.066Z,10.32
2023-05-10T01:54:09.158Z,10.32
2023-05-10T01:55:09.320Z,10.32
2023-05-10T01:56:09.410Z,10.24
2023-05-10T01:57:09.564Z,10.32
2023-05-10T01:58:09.676Z,10.24
2023-05-10T01:59:09.777Z,10.24
2023-05-10T02:00:09.917Z,10.24
2023-05-10T02:01:10.107Z,10.08
2023-05-10T02:02:10.172Z,10.08
2023-05-10T02:03:10.374Z,10.08
2023-05-10T02:04:10.458Z,10.08
2023-05-10T02:05:10.575Z,10.08
2023-05-10T02:06:10.677Z,10.24
2023-05-10T02:07:10.777Z,10.08
2023-05-10T02:08:10.932Z,10.08
2023-05-10T02:09:11.044Z,10
2023-05-10T02:10:11.135Z,10.08
2023-05-10T02:11:11.289Z,10.08
2023-05-10T02:12:11.400Z,10
2023-05-10T02:13:11.496Z,10
2023-05-10T02:14:11.644Z,10.24
2023-05-10T02:15:11.744Z,10
2023-05-10T02:16:11.888Z,10.08
2023-05-10T02:17:12.003Z,10.08
2023-05-10T02:18:12.154Z,10
2023-05-10T02:19:12.257Z,10.08
2023-05-10T02:20:12.407Z,10
2023-05-10T02:21:12.555Z,10
2023-05-10T02:22:12.652Z,10.08
2023-05-10T02:23:12.760Z,10.08
2023-05-10T02:24:12.864Z,10
2023-05-10T02:25:13.018Z,9.92
2023-05-10T02:26:13.116Z,9.92
2023-05-10T02:27:13.214Z,9.679999
2023-05-10T02:28:13.322Z,9.84
2023-05-10T02:29:13.468Z,10
2023-05-10T02:30:13.642Z,9.92
2023-05-10T02:31:13.734Z,9.84
2023-05-10T02:32:13.878Z,9.84
2023-05-10T02:33:13.990Z,9.92
2023-05-10T02:34:14.078Z,9.84
2023-05-10T02:35:14.174Z,9.92
2023-05-10T02:36:14.292Z,9.84
2023-05-10T02:37:14.433Z,9.52
2023-05-10T02:38:14.543Z,9.28
2023-05-10T02:39:14.639Z,9.12
2023-05-10T02:40:15.027Z,9.12
2023-05-10T02:41:14.893Z,9.2
2023-05-10T02:42:14.999Z,9.52
2023-05-10T02:43:15.144Z,9.599999
2023-05-10T02:44:15.296Z,9.52
2023-05-10T02:45:15.450Z,9.52
2023-05-10T02:46:15.570Z,9.92
2023-05-10T02:47:15.649Z,9.36
2023-05-10T02:48:15.829Z,9.36
2023-05-10T02:49:15.953Z,9.12
2023-05-10T02:50:16.317Z,8.88
2023-05-10T02:51:16.266Z,9.04
2023-05-10T02:52:16.313Z,9.2
2023-05-10T02:53:16.467Z,9.36
2023-05-10T02:54:16.615Z,9.52
2023-05-10T02:55:16.779Z,9.36
2023-05-10T02:56:16.914Z,9.28
2023-05-10T02:57:17.025Z,9.599999
2023-05-10T02:58:17.118Z,9.679999
2023-05-10T02:59:17.274Z,9.679999
2023-05-10T03:00:17.585Z,9.52
2023-05-10T03:01:17.544Z,9.599999
2023-05-10T03:02:17.680Z,9.599999
2023-05-10T03:03:17.782Z,9.599999
2023-05-10T03:04:17.893Z,9.52
2023-05-10T03:05:17.980Z,9.52
2023-05-10T03:06:18.085Z,9.36
2023-05-10T03:07:18.184Z,9.36
2023-05-10T03:08:18.289Z,9.52
2023-05-10T03:09:18.442Z,9.599999
2023-05-10T03:10:18.765Z,9.36
2023-05-10T03:11:18.696Z,9.679999
2023-05-10T03:12:18.803Z,9.52
2023-05-10T03:13:18.927Z,9.52
2023-05-10T03:14:19.073Z,9.36
2023-05-10T03:15:19.208Z,9.599999
2023-05-10T03:16:19.341Z,9.52
2023-05-10T03:17:19.461Z,9.599999
2023-05-10T03:18:19.563Z,9.52
2023-05-10T03:19:19.671Z,9.36
2023-05-10T03:20:19.808Z,9.28
2023-05-10T03:21:19.906Z,9.28
2023-05-10T03:22:20.013Z,8.88
2023-05-10T03:23:20.162Z,8.72
2023-05-10T03:24:20.287Z,8.72
2023-05-10T03:25:20.421Z,8.72
2023-05-10T03:26:20.516Z,8.639999
2023-05-10T03:27:20.620Z,8.48
2023-05-10T03:28:20.773Z,8.4
2023-05-10T03:29:20.872Z,8.72
2023-05-10T03:30:20.980Z,8.72
2023-05-10T03:31:21.102Z,8.8
2023-05-10T03:32:21.237Z,8.88
2023-05-10T03:33:21.336Z,9.04
2023-05-10T03:34:21.488Z,8.8
2023-05-10T03:35:21.639Z,8.88
2023-05-10T03:36:21.785Z,8.72
2023-05-10T03:37:21.894Z,8.639999
2023-05-10T03:38:21.993Z,8.24
2023-05-10T03:39:22.093Z,7.84
2023-05-10T03:40:22.245Z,8
2023-05-10T03:41:22.453Z,7.84
2023-05-10T03:42:22.499Z,7.84
2023-05-10T03:43:22.653Z,7.92
2023-05-10T03:44:22.797Z,7.68
2023-05-10T03:45:22.909Z,7.68
2023-05-10T03:46:23.066Z,8.08
2023-05-10T03:47:23.208Z,8.08
2023-05-10T03:48:23.316Z,8
2023-05-10T03:49:23.482Z,8.24
2023-05-10T03:50:23.562Z,8.4
2023-05-10T03:51:23.717Z,8.32
2023-05-10T03:52:23.829Z,8.639999
2023-05-10T03:53:23.964Z,8.639999
2023-05-10T03:54:24.069Z,8.8
2023-05-10T03:55:24.223Z,9.04
2023-05-10T03:56:24.369Z,9.04
2023-05-10T03:57:24.472Z,9.12
2023-05-10T03:58:24.578Z,9.28
2023-05-10T03:59:24.727Z,9.28
2023-05-10T04:00:24.875Z,9.28
2023-05-10T04:01:25.028Z,9.36
2023-05-10T04:02:25.272Z,9.52
2023-05-10T04:03:25.313Z,9.52
2023-05-10T04:04:25.382Z,9.52
2023-05-10T04:05:25.546Z,9.52
2023-05-10T04:06:25.734Z,9.52
2023-05-10T04:07:25.795Z,9.599999
2023-05-10T04:08:25.894Z,9.599999
2023-05-10T04:09:25.991Z,9.599999
2023-05-10T04:10:26.155Z,9.599999
2023-05-10T04:11:26.300Z,9.679999
2023-05-10T04:12:26.446Z,9.84
2023-05-10T04:13:26.614Z,9.84
2023-05-10T04:14:26.710Z,9.84
2023-05-10T04:15:26.806Z,9.92
2023-05-10T04:16:26.919Z,9.92
2023-05-10T04:17:27.099Z,9.92
2023-05-10T04:18:27.161Z,10
2023-05-10T04:19:27.265Z,10
2023-05-10T04:20:27.410Z,10.32
2023-05-10T04:21:27.564Z,10.639999
2023-05-10T04:22:27.717Z,10.639999
2023-05-10T04:23:27.868Z,10.8
2023-05-10T04:24:28.020Z,10.8
2023-05-10T04:25:28.125Z,10.88
2023-05-10T04:26:28.222Z,10.88
2023-05-10T04:27:28.376Z,11.12
2023-05-10T04:28:28.478Z,11.04
2023-05-10T04:29:28.646Z,11.12
2023-05-10T04:30:28.728Z,11.04
2023-05-10T04:31:28.921Z,11.04
2023-05-10T04:32:28.955Z,11.04
2023-05-10T04:33:29.033Z,11.12
2023-05-10T04:34:29.192Z,11.2
2023-05-10T04:35:29.289Z,11.2
2023-05-10T04:36:29.436Z,11.28
2023-05-10T04:37:29.557Z,11.44
2023-05-10T04:38:29.649Z,11.28
2023-05-10T04:39:29.818Z,11.28
2023-05-10T04:40:29.899Z,11.52
2023-05-10T04:41:30.000Z,11.52
2023-05-10T04:42:30.157Z,11.52
2023-05-10T04:43:30.251Z,11.52
2023-05-10T04:44:30.354Z,11.52
2023-05-10T04:45:30.449Z,11.599999
2023-05-10T04:46:30.624Z,11.599999
2023-05-10T04:47:30.686Z,11.679999
2023-05-10T04:48:30.820Z,11.84
2023-05-10T04:49:30.983Z,11.84
2023-05-10T04:50:31.112Z,11.84
2023-05-10T04:51:31.216Z,11.92
2023-05-10T04:52:31.361Z,11.679999
2023-05-10T04:53:31.468Z,11.679999
2023-05-10T04:54:31.624Z,12.08
2023-05-10T04:55:31.721Z,12.08
2023-05-10T04:56:31.870Z,11.679999
2023-05-10T04:57:32.020Z,11.52
2023-05-10T04:58:32.122Z,11.599999
2023-05-10T04:59:32.223Z,11.679999
2023-05-10T05:00:32.368Z,11.599999
2023-05-10T05:01:32.540Z,11.84
2023-05-10T05:02:32.635Z,11.92
2023-05-10T05:03:32.770Z,11.92
2023-05-10T05:04:32.834Z,12.08
2023-05-10T05:05:32.937Z,12.4
2023-05-10T05:06:33.089Z,12.32
2023-05-10T05:07:33.192Z,12.48
2023-05-10T05:08:33.294Z,12.4
2023-05-10T05:09:33.394Z,12.48
2023-05-10T05:10:33.549Z,12.719999
2023-05-10T05:11:33.698Z,12.639999
2023-05-10T05:12:33.806Z,12.799999
2023-05-10T05:13:33.953Z,12.799999
2023-05-10T05:14:34.053Z,13.04
2023-05-10T05:15:34.162Z,13.2
2023-05-10T05:16:34.327Z,13.04
2023-05-10T05:17:34.485Z,13.28
2023-05-10T05:18:34.559Z,13.2
2023-05-10T05:19:34.714Z,13.28
2023-05-10T05:20:34.808Z,13.599999
2023-05-10T05:21:34.971Z,13.599999
2023-05-10T05:22:35.064Z,13.92
2023-05-10T05:23:35.174Z,13.679999
2023-05-10T05:24:35.270Z,13.84
2023-05-10T05:25:35.368Z,13.52
2023-05-10T05:26:35.520Z,13.44
2023-05-10T05:27:35.627Z,13.52
2023-05-10T05:28:35.776Z,13.599999
2023-05-10T05:29:35.877Z,13.52
2023-05-10T05:30:36.035Z,13.44
2023-05-10T05:31:36.155Z,13.599999
2023-05-10T05:32:36.319Z,13.679999
2023-05-10T05:33:36.382Z,13.679999
2023-05-10T05:34:36.491Z,13.679999
2023-05-10T05:35:36.590Z,13.599999
2023-05-10T05:36:37.669Z,13.679999
2023-05-10T05:37:36.889Z,13.599999
2023-05-10T05:38:36.989Z,13.92
2023-05-10T05:39:37.092Z,13.92
2023-05-10T05:40:37.202Z,14
2023-05-10T05:41:37.298Z,14.32
2023-05-10T05:42:37.396Z,14.32
2023-05-10T05:43:38.401Z,14.4
2023-05-10T05:44:37.657Z,14.4
2023-05-10T05:45:37.781Z,14.719999
2023-05-10T05:46:37.900Z,14.639999
2023-05-10T05:47:38.039Z,14.639999
2023-05-10T05:48:38.159Z,14.88
2023-05-10T05:49:38.317Z,15.12
2023-05-10T05:50:38.461Z,14.4
2023-05-10T05:51:38.566Z,14.48
2023-05-10T05:52:38.718Z,14.4
2023-05-10T05:53:38.871Z,14.799999
2023-05-10T05:54:39.022Z,14.799999
2023-05-10T05:55:39.121Z,15.12
2023-05-10T05:56:39.225Z,15.04
2023-05-10T05:57:39.345Z,14.719999
2023-05-10T05:58:39.430Z,14.719999
2023-05-10T05:59:39.526Z,14.88
2023-05-10T06:00:39.652Z,14.799999
2023-05-10T06:01:39.787Z,15.2
2023-05-10T06:02:40.063Z,14.88
2023-05-10T06:03:40.089Z,15.04
2023-05-10T06:04:41.518Z,14.719999
2023-05-10T06:05:40.321Z,14.799999
2023-05-10T06:06:40.395Z,15.04
2023-05-10T06:07:40.493Z,15.12
2023-05-10T06:08:40.643Z,14.799999
2023-05-10T06:09:40.803Z,15.04
2023-05-10T06:10:40.902Z,14.639999
2023-05-10T06:11:41.002Z,14.719999
2023-05-10T06:12:41.111Z,14.4
2023-05-10T06:13:41.259Z,14.32
2023-05-10T06:14:41.352Z,13.92
2023-05-10T06:15:41.510Z,13.92
2023-05-10T06:16:41.654Z,13.92
2023-05-10T06:17:41.738Z,13.92
2023-05-10T06:18:41.862Z,13.92
2023-05-10T06:19:41.991Z,13.84
2023-05-10T06:20:42.062Z,13.84
2023-05-10T06:21:42.182Z,13.679999
2023-05-10T06:22:42.320Z,13.679999
2023-05-10T06:23:42.414Z,13.92
2023-05-10T06:24:42.536Z,13.679999
2023-05-10T06:25:42.623Z,13.599999
2023-05-10T06:26:42.777Z,13.679999
2023-05-10T06:27:42.878Z,13.84
2023-05-10T06:28:42.977Z,13.599999
2023-05-10T06:29:43.131Z,13.679999
2023-05-10T06:30:43.232Z,14
2023-05-10T06:31:43.347Z,13.84
2023-05-10T06:32:43.452Z,13.679999
2023-05-10T06:33:43.544Z,13.44
2023-05-10T06:34:43.649Z,13.679999
2023-05-10T06:35:43.755Z,13.84
2023-05-10T06:36:43.893Z,13.84
2023-05-10T06:37:44.003Z,13.679999
2023-05-10T06:38:44.144Z,13.599999
2023-05-10T06:39:44.246Z,13.679999
2023-05-10T06:40:44.400Z,13.599999
2023-05-10T06:41:44.551Z,13.84
2023-05-10T06:42:44.650Z,13.84
2023-05-10T06:43:44.763Z,14
2023-05-10T06:44:44.903Z,13.92
2023-05-10T06:45:45.006Z,13.92
2023-05-10T06:46:45.136Z,13.92
2023-05-10T06:47:45.500Z,13.92
2023-05-10T06:48:45.371Z,13.84
2023-05-10T06:49:45.515Z,13.84
2023-05-10T06:50:45.621Z,13.92
2023-05-10T06:51:45.785Z,13.84
2023-05-10T06:52:45.916Z,14.08
2023-05-10T06:53:46.027Z,14
2023-05-10T06:54:46.130Z,13.92
2023-05-10T06:55:46.228Z,14.639999
2023-05-10T06:56:46.329Z,14.799999
2023-05-10T06:57:46.430Z,15.2
2023-05-10T06:58:46.565Z,15.2
2023-05-10T06:59:46.634Z,15.04
2023-05-10T07:00:46.745Z,14.639999
2023-05-10T07:01:46.863Z,14.88
2023-05-10T07:02:46.939Z,14.719999
2023-05-10T07:03:47.041Z,14.48
2023-05-10T07:04:47.143Z,14.799999
2023-05-10T07:05:47.291Z,15.44
2023-05-10T07:06:47.449Z,15.839999
2023-05-10T07:07:47.544Z,15.44
2023-05-10T07:08:47.646Z,15.44
2023-05-10T07:09:47.778Z,14.88
2023-05-10T07:10:47.904Z,14.88
2023-05-10T07:11:48.051Z,14.719999
2023-05-10T07:12:48.258Z,15.04
2023-05-10T07:13:48.302Z,14.719999
2023-05-10T07:14:48.462Z,14.48
2023-05-10T07:15:48.576Z,14.4
2023-05-10T07:16:48.672Z,14.32
2023-05-10T07:17:48.842Z,14.32
2023-05-10T07:18:48.913Z,14.4
2023-05-10T07:19:49.022Z,14.32
2023-05-10T07:20:49.145Z,14.32
2023-05-10T07:21:49.230Z,14.08
2023-05-10T07:22:49.381Z,14.32
2023-05-10T07:23:49.479Z,14.639999
2023-05-10T07:24:49.622Z,14.799999
2023-05-10T07:25:49.780Z,14.639999
2023-05-10T07:26:49.925Z,14.799999
2023-05-10T07:27:50.078Z,14.639999
2023-05-10T07:28:50.181Z,14.639999
2023-05-10T07:29:50.280Z,14.639999
2023-05-10T07:30:50.406Z,14.88
2023-05-10T07:31:50.512Z,14.799999
2023-05-10T07:32:50.624Z,14.639999
2023-05-10T07:33:50.743Z,14.719999
2023-05-10T07:34:50.851Z,14.88
2023-05-10T07:35:51.009Z,15.04
2023-05-10T07:36:51.144Z,15.12
2023-05-10T07:37:51.258Z,15.2
2023-05-10T07:38:51.430Z,15.04
2023-05-10T07:39:51.553Z,14.799999
2023-05-10T07:40:51.667Z,15.04
2023-05-10T07:41:51.809Z,14.799999
2023-05-10T07:42:51.952Z,14.799999
2023-05-10T07:43:52.117Z,14.799999
2023-05-10T07:44:52.268Z,14.799999
2023-05-10T07:45:54.019Z,15.12
2023-05-10T07:46:52.514Z,15.28
2023-05-10T07:47:52.743Z,15.28
2023-05-10T07:48:52.711Z,15.28
2023-05-10T07:49:52.817Z,15.28
2023-05-10T07:50:52.964Z,15.28
2023-05-10T07:51:53.069Z,15.44
2023-05-10T07:52:53.219Z,15.44
2023-05-10T07:53:53.325Z,15.599999
2023-05-10T07:54:53.514Z,15.599999
2023-05-10T07:55:53.578Z,15.92
2023-05-10T07:56:53.682Z,15.92
2023-05-10T07:57:53.786Z,15.839999
2023-05-10T07:58:53.881Z,15.679999
2023-05-10T07:59:53.982Z,15.679999
2023-05-10T08:00:54.136Z,15.839999
2023-05-10T08:01:54.365Z,16
2023-05-10T08:02:54.489Z,16.24
2023-05-10T08:03:54.667Z,16.24
2023-05-10T08:04:54.588Z,16
2023-05-10T08:05:54.746Z,15.839999
2023-05-10T08:06:54.802Z,15.679999
2023-05-10T08:07:54.893Z,15.599999
2023-05-10T08:08:55.066Z,15.52
2023-05-10T08:09:55.224Z,15.52
2023-05-10T08:10:55.350Z,15.52
2023-05-10T08:11:55.454Z,15.44
2023-05-10T08:12:55.554Z,15.2
2023-05-10T08:13:55.716Z,15.2
2023-05-10T08:14:55.805Z,15.44
2023-05-10T08:15:55.933Z,15.599999
2023-05-10T08:16:56.065Z,15.52
2023-05-10T08:17:56.261Z,15.599999
2023-05-10T08:18:56.452Z,15.28
2023-05-10T08:19:56.419Z,15.44
2023-05-10T08:20:56.569Z,15.2
2023-05-10T08:21:56.683Z,15.44
2023-05-10T08:22:56.767Z,15.679999
2023-05-10T08:23:56.927Z,15.28
2023-05-10T08:24:57.020Z,15.28
2023-05-10T08:25:57.129Z,15.599999
2023-05-10T08:26:57.228Z,16.08
2023-05-10T08:27:57.377Z,15.679999
2023-05-10T08:28:57.484Z,15.599999
2023-05-10T08:29:57.586Z,16
2023-05-10T08:30:57.714Z,15.679999
2023-05-10T08:31:57.786Z,15.599999
2023-05-10T08:32:58.007Z,15.839999
2023-05-10T08:33:58.036Z,16
2023-05-10T08:34:58.190Z,15.599999
2023-05-10T08:35:58.340Z,15.44
2023-05-10T08:36:58.444Z,15.2
2023-05-10T08:37:58.557Z,15.44
2023-05-10T08:38:58.666Z,15.599999
2023-05-10T08:39:58.814Z,15.599999
2023-05-10T08:40:58.948Z,15.52
2023-05-10T08:41:59.098Z,15.599999
2023-05-10T08:42:59.208Z,15.599999
2023-05-10T08:43:59.356Z,15.52
2023-05-10T08:44:59.505Z,15.92
2023-05-10T08:45:59.553Z,15.679999
2023-05-10T08:46:59.672Z,15.679999
2023-05-10T08:47:59.783Z,15.52
2023-05-10T08:48:59.910Z,15.52
2023-05-10T08:49:59.965Z,15.28
2023-05-10T08:51:00.133Z,15.44
2023-05-10T08:52:00.218Z,15.2
2023-05-10T08:53:00.368Z,15.12
2023-05-10T08:54:00.472Z,15.28
2023-05-10T08:55:00.575Z,15.44
2023-05-10T08:56:00.688Z,15.2
2023-05-10T08:57:00.830Z,15.04
2023-05-10T08:58:00.981Z,15.2
2023-05-10T08:59:01.101Z,15.04
2023-05-10T09:00:01.201Z,15.04
2023-05-10T09:01:01.282Z,14.799999
2023-05-10T09:02:01.393Z,14.719999
2023-05-10T09:03:01.519Z,14.799999
2023-05-10T09:04:01.642Z,14.639999
2023-05-10T09:05:01.750Z,14.639999
2023-05-10T09:06:01.854Z,14.719999
2023-05-10T09:07:01.949Z,14.719999
2023-05-10T09:08:02.048Z,14.799999
2023-05-10T09:09:02.162Z,14.799999
2023-05-10T09:10:02.255Z,14.719999
2023-05-10T09:11:02.407Z,14.639999
2023-05-10T09:12:02.507Z,14.639999
2023-05-10T09:13:02.610Z,14.639999
2023-05-10T09:14:02.761Z,14.719999
2023-05-10T09:15:02.858Z,14.48
2023-05-10T09:16:10.121Z,14.639999
2023-05-10T09:17:03.095Z,14.48
2023-05-10T09:18:03.311Z,14.4
2023-05-10T09:19:03.420Z,14.32
2023-05-10T09:20:03.506Z,14.08
2023-05-10T09:21:03.623Z,14.08
2023-05-10T09:22:03.726Z,14.24
2023-05-10T09:23:03.825Z,14.08
2023-05-10T09:24:03.980Z,14.32
2023-05-10T09:25:04.076Z,13.92
2023-05-10T09:26:04.176Z,14
2023-05-10T09:27:04.283Z,13.92
2023-05-10T09:28:04.435Z,13.92
2023-05-10T09:29:04.579Z,13.679999
2023-05-10T09:30:04.703Z,13.84
2023-05-10T09:31:04.806Z,13.679999
2023-05-10T09:32:04.899Z,13.84
2023-05-10T09:33:05.022Z,13.679999
2023-05-10T09:34:05.144Z,13.92
2023-05-10T09:35:05.243Z,13.92
2023-05-10T09:36:05.352Z,13.92
2023-05-10T09:37:05.594Z,13.84
2023-05-10T09:38:05.549Z,13.679999
2023-05-10T09:39:05.667Z,13.679999
2023-05-10T09:40:05.804Z,13.679999
2023-05-10T09:41:05.907Z,13.679999
2023-05-10T09:42:06.012Z,13.599999
2023-05-10T09:43:06.110Z,13.679999
2023-05-10T09:44:06.264Z,13.84
2023-05-10T09:45:06.362Z,13.679999
2023-05-10T09:46:06.552Z,13.92
2023-05-10T09:47:06.667Z,13.92
2023-05-10T09:48:06.906Z,13.84
2023-05-10T09:49:06.921Z,13.84
2023-05-10T09:50:07.074Z,13.679999
2023-05-10T09:51:07.221Z,13.679999
2023-05-10T09:52:07.348Z,13.84
2023-05-10T09:53:07.434Z,13.84
2023-05-10T09:54:07.523Z,13.84
2023-05-10T09:55:07.647Z,13.84
2023-05-10T09:56:07.788Z,13.84
2023-05-10T09:57:07.893Z,13.92
2023-05-10T09:58:08.036Z,13.679999
2023-05-10T09:59:08.138Z,13.84
2023-05-10T10:00:08.237Z,13.52
2023-05-10T10:01:08.450Z,13.679999
2023-05-10T10:02:08.494Z,13.599999
2023-05-10T10:03:08.626Z,13.52
2023-05-10T10:04:08.723Z,13.2
2023-05-10T10:05:08.915Z,13.52
2023-05-10T10:06:15.930Z,13.44
2023-05-10T10:07:09.109Z,13.44
2023-05-10T10:08:09.254Z,13.28
2023-05-10T10:09:09.562Z,13.44
2023-05-10T10:10:09.512Z,13.52
2023-05-10T10:11:09.665Z,13.44
2023-05-10T10:12:09.774Z,13.44
2023-05-10T10:13:09.931Z,13.52
2023-05-10T10:14:10.019Z,13.44
2023-05-10T10:15:10.190Z,13.44
2023-05-10T10:16:10.318Z,13.52
2023-05-10T10:17:10.395Z,13.28
2023-05-10T10:18:10.560Z,13.44
2023-05-10T10:19:10.568Z,13.44
2023-05-10T10:20:12.067Z,13.44
2023-05-10T10:21:10.826Z,13.52
2023-05-10T10:22:10.932Z,13.52
2023-05-10T10:23:11.084Z,13.52
2023-05-10T10:24:11.181Z,13.599999
2023-05-10T10:25:11.330Z,13.28
2023-05-10T10:26:11.435Z,13.28
2023-05-10T10:27:11.584Z,13.28
2023-05-10T10:28:11.684Z,13.2
2023-05-10T10:29:11.839Z,13.2
2023-05-10T10:30:11.941Z,13.2
2023-05-10T10:31:12.073Z,13.28
2023-05-10T10:32:12.200Z,13.44
2023-05-10T10:33:20.467Z,13.28
2023-05-10T10:34:12.496Z,13.2
2023-05-10T10:35:12.598Z,13.28
2023-05-10T10:36:12.701Z,13.44
2023-05-10T10:37:12.851Z,13.44
2023-05-10T10:38:13.001Z,13.44
2023-05-10T10:39:13.164Z,13.52
2023-05-10T10:40:13.263Z,13.599999
2023-05-10T10:41:13.412Z,13.599999
2023-05-10T10:42:13.465Z,13.599999
2023-05-10T10:43:13.562Z,13.44
2023-05-10T10:44:13.714Z,13.599999
2023-05-10T10:45:13.938Z,13.44
2023-05-10T10:46:14.013Z,13.52
2023-05-10T10:47:14.096Z,13.599999
2023-05-10T10:48:14.255Z,13.84
2023-05-10T10:49:14.356Z,13.599999
2023-05-10T10:50:14.437Z,13.52
2023-05-10T10:51:14.527Z,13.52
2023-05-10T10:52:14.685Z,13.52
2023-05-10T10:53:14.853Z,13.52
2023-05-10T10:54:14.941Z,13.599999
2023-05-10T10:55:15.194Z,13.44
2023-05-10T10:56:15.136Z,13.52
2023-05-10T10:57:15.293Z,13.44
2023-05-10T10:58:15.392Z,13.44
2023-05-10T10:59:15.495Z,13.599999
2023-05-10T11:00:15.615Z,13.52
2023-05-10T11:01:15.774Z,13.52
2023-05-10T11:02:15.844Z,13.52
2023-05-10T11:03:16.087Z,13.52
2023-05-10T11:04:16.167Z,13.44
2023-05-10T11:05:16.322Z,13.28
2023-05-10T11:06:16.369Z,13.2
2023-05-10T11:07:16.465Z,13.28
2023-05-10T11:08:16.575Z,13.2
2023-05-10T11:09:16.666Z,13.2
2023-05-10T11:10:16.808Z,13.2
2023-05-10T11:11:16.931Z,13.2
2023-05-10T11:12:17.031Z,13.28
2023-05-10T11:13:17.123Z,13.2
2023-05-10T11:14:17.274Z,13.28
2023-05-10T11:15:17.557Z,13.44
2023-05-10T11:16:17.617Z,13.28
2023-05-10T11:17:17.623Z,13.28
2023-05-10T11:18:17.772Z,13.28
2023-05-10T11:19:17.871Z,13.28
2023-05-10T11:20:18.139Z,13.28
2023-05-10T11:21:18.128Z,13.28
2023-05-10T11:22:18.228Z,13.44
2023-05-10T11:23:18.329Z,13.2
2023-05-10T11:24:18.476Z,13.2
2023-05-10T11:25:18.637Z,13.2
2023-05-10T11:26:18.741Z,13.2
2023-05-10T11:27:18.835Z,13.2
2023-05-10T11:28:18.941Z,13.44
2023-05-10T11:29:19.049Z,13.28
2023-05-10T11:30:19.297Z,13.28
2023-05-10T11:31:19.316Z,13.2
2023-05-10T11:32:19.399Z,13.12
2023-05-10T11:33:19.498Z,13.12
2023-05-10T11:34:19.668Z,13.04
2023-05-10T11:35:19.751Z,13.04
2023-05-10T11:36:19.871Z,12.88
2023-05-10T11:37:19.953Z,13.04
2023-05-10T11:38:20.054Z,12.88
2023-05-10T11:39:20.154Z,12.799999
2023-05-10T11:40:20.348Z,12.799999
2023-05-10T11:41:20.461Z,12.639999
2023-05-10T11:42:20.667Z,12.08
2023-05-10T11:43:20.741Z,12
2023-05-10T11:44:20.815Z,11.84
2023-05-10T11:45:20.976Z,11.84
2023-05-10T11:46:21.096Z,11.679999
2023-05-10T11:47:21.220Z,11.52
2023-05-10T11:48:21.328Z,11.44
2023-05-10T11:49:21.474Z,11.28
2023-05-10T11:50:21.584Z,11.28
2023-05-10T11:51:21.687Z,11.28
2023-05-10T11:52:21.830Z,11.2
2023-05-10T11:53:22.481Z,11.12
2023-05-10T11:54:22.037Z,11.2
2023-05-10T11:55:22.193Z,11.2
2023-05-10T11:56:22.289Z,11.12
2023-05-10T11:57:22.398Z,11.12
2023-05-10T11:58:22.489Z,11.12
2023-05-10T11:59:22.653Z,11.04
2023-05-10T12:00:22.756Z,11.04
2023-05-10T12:01:22.891Z,11.04
2023-05-10T12:02:23.028Z,10.88
2023-05-10T12:03:23.239Z,10.88
2023-05-10T12:04:23.362Z,11.04
2023-05-10T12:05:23.352Z,11.04
2023-05-10T12:06:23.448Z,11.12
2023-05-10T12:07:23.567Z,11.12
2023-05-10T12:08:23.659Z,11.12
2023-05-10T12:10:23.861Z,11.12
2023-05-10T12:11:24.055Z,11.12
2023-05-10T12:12:24.111Z,11.2
2023-05-10T12:13:24.263Z,11.12
2023-05-10T12:14:24.419Z,11.12
2023-05-10T12:15:24.534Z,11.12
2023-05-10T12:16:24.661Z,11.2
2023-05-10T12:17:24.724Z,11.2
2023-05-10T12:18:24.879Z,11.12
2023-05-10T12:19:24.974Z,11.2
2023-05-10T12:20:25.144Z,11.2
2023-05-10T12:21:25.275Z,11.2
2023-05-10T12:22:25.432Z,11.2
2023-05-10T12:23:25.585Z,11.12
2023-05-10T12:24:25.691Z,11.2
2023-05-10T12:25:25.789Z,11.2
2023-05-10T12:26:25.892Z,11.28
2023-05-10T12:27:25.990Z,11.44
2023-05-10T12:28:26.096Z,11.52
2023-05-10T12:29:26.200Z,11.52
2023-05-10T12:30:26.365Z,11.599999
2023-05-10T12:31:26.512Z,11.599999
2023-05-10T12:32:26.681Z,11.599999
2023-05-10T12:33:26.756Z,11.52
2023-05-10T12:34:26.855Z,11.52
2023-05-10T12:35:27.013Z,11.52
2023-05-10T12:36:27.153Z,11.599999
2023-05-10T12:37:27.306Z,11.679999
2023-05-10T12:38:27.415Z,11.599999
2023-05-10T12:39:27.511Z,11.679999